sensor_id;sensor_type;location;lat;lon;timestamp;temperature;humidity
22153;DHT22;11242;50.536;12.688;2022-09-06T00:00:57;17.30;99.90
22153;DHT22;11242;50.536;12.688;2022-09-06T00:03:23;17.30;99.90
22153;DHT22;11242;50.536;12.688;2022-09-06T00:05:49;17.20;99.90
22153;DHT22;11242;50.536;12.688;2022-09-06T00:08:15;17.20;99.90
22153;DHT22;11242;50.536;12.688;2022-09-06T00:10:41;17.10;99.90
22153;DHT22;11242;50.536;12.688;2022-09-06T00:13:09;17.00;99.90
22153;DHT22;11242;50.536;12.688;2022-09-06T00:15:35;17.00;99.90
22153;DHT22;11242;50.536;12.688;2022-09-06T00:18:03;16.90;99.90
22153;DHT22;11242;50.536;12.688;2022-09-06T00:20:29;16.90;99.90
22153;DHT22;11242;50.536;12.688;2022-09-06T00:23:00;16.90;99.90
22153;DHT22;11242;50.536;12.688;2022-09-06T00:25:26;16.90;99.90
22153;DHT22;11242;50.536;12.688;2022-09-06T00:27:57;16.90;99.90
22153;DHT22;11242;50.536;12.688;2022-09-06T00:30:24;16.80;99.90
22153;DHT22;11242;50.536;12.688;2022-09-06T00:32:50;16.80;99.90
22153;DHT22;11242;50.536;12.688;2022-09-06T00:35:18;16.80;99.90
22153;DHT22;11242;50.536;12.688;2022-09-06T00:37:43;16.70;99.90
22153;DHT22;11242;50.536;12.688;2022-09-06T00:40:10;16.70;99.90
22153;DHT22;11242;50.536;12.688;2022-09-06T00:42:35;16.80;99.90
22153;DHT22;11242;50.536;12.688;2022-09-06T00:45:01;16.80;99.90
22153;DHT22;11242;50.536;12.688;2022-09-06T00:47:27;16.80;99.90
22153;DHT22;11242;50.536;12.688;2022-09-06T00:49:55;16.80;99.90
22153;DHT22;11242;50.536;12.688;2022-09-06T00:52:21;16.90;99.90
22153;DHT22;11242;50.536;12.688;2022-09-06T00:54:49;16.90;99.90
22153;DHT22;11242;50.536;12.688;2022-09-06T00:57:15;16.80;99.90
22153;DHT22;11242;50.536;12.688;2022-09-06T00:59:41;16.80;99.90
22153;DHT22;11242;50.536;12.688;2022-09-06T01:02:08;16.80;99.90
22153;DHT22;11242;50.536;12.688;2022-09-06T01:04:35;16.70;99.90
22153;DHT22;11242;50.536;12.688;2022-09-06T01:10:03;16.70;99.90
22153;DHT22;11242;50.536;12.688;2022-09-06T01:12:58;16.60;99.90
22153;DHT22;11242;50.536;12.688;2022-09-06T01:24:04;16.60;99.90
22153;DHT22;11242;50.536;12.688;2022-09-06T01:26:43;16.60;99.90
22153;DHT22;11242;50.536;12.688;2022-09-06T01:29:27;16.60;99.90
22153;DHT22;11242;50.536;12.688;2022-09-06T01:32:04;16.50;99.90
22153;DHT22;11242;50.536;12.688;2022-09-06T01:34:53;16.50;99.90
22153;DHT22;11242;50.536;12.688;2022-09-06T01:37:23;16.50;99.90
22153;DHT22;11242;50.536;12.688;2022-09-06T01:39:49;16.50;99.90
22153;DHT22;11242;50.536;12.688;2022-09-06T01:42:24;16.40;99.90
22153;DHT22;11242;50.536;12.688;2022-09-06T01:44:54;16.30;99.90
22153;DHT22;11242;50.536;12.688;2022-09-06T01:47:21;16.30;99.90
22153;DHT22;11242;50.536;12.688;2022-09-06T01:56:24;16.30;99.90
22153;DHT22;11242;50.536;12.688;2022-09-06T01:59:19;16.30;99.90
22153;DHT22;11242;50.536;12.688;2022-09-06T02:02:02;16.30;99.90
22153;DHT22;11242;50.536;12.688;2022-09-06T02:07:06;16.40;99.90
22153;DHT22;11242;50.536;12.688;2022-09-06T02:09:37;16.40;99.90
22153;DHT22;11242;50.536;12.688;2022-09-06T02:12:06;16.40;99.90
22153;DHT22;11242;50.536;12.688;2022-09-06T02:14:37;16.40;99.90
22153;DHT22;11242;50.536;12.688;2022-09-06T02:17:05;16.50;99.90
22153;DHT22;11242;50.536;12.688;2022-09-06T02:22:49;16.60;99.90
22153;DHT22;11242;50.536;12.688;2022-09-06T02:25:26;16.70;99.90
22153;DHT22;11242;50.536;12.688;2022-09-06T02:27:53;16.90;99.90
22153;DHT22;11242;50.536;12.688;2022-09-06T02:30:19;17.10;99.90
22153;DHT22;11242;50.536;12.688;2022-09-06T02:33:01;17.10;99.90
22153;DHT22;11242;50.536;12.688;2022-09-06T02:35:29;17.10;99.90
22153;DHT22;11242;50.536;12.688;2022-09-06T02:37:54;17.20;99.90
22153;DHT22;11242;50.536;12.688;2022-09-06T02:40:20;17.20;99.90
22153;DHT22;11242;50.536;12.688;2022-09-06T02:42:46;17.20;99.90
22153;DHT22;11242;50.536;12.688;2022-09-06T02:45:12;17.10;99.90
22153;DHT22;11242;50.536;12.688;2022-09-06T02:47:37;16.90;99.90
22153;DHT22;11242;50.536;12.688;2022-09-06T02:50:03;16.80;99.90
22153;DHT22;11242;50.536;12.688;2022-09-06T02:52:29;16.70;99.90
22153;DHT22;11242;50.536;12.688;2022-09-06T02:54:55;16.60;99.90
22153;DHT22;11242;50.536;12.688;2022-09-06T02:57:20;16.60;99.90
22153;DHT22;11242;50.536;12.688;2022-09-06T02:59:47;16.60;99.90
22153;DHT22;11242;50.536;12.688;2022-09-06T03:02:13;16.50;99.90
22153;DHT22;11242;50.536;12.688;2022-09-06T03:04:38;16.50;99.90
22153;DHT22;11242;50.536;12.688;2022-09-06T03:07:04;16.40;99.90
22153;DHT22;11242;50.536;12.688;2022-09-06T03:09:29;16.40;99.90
22153;DHT22;11242;50.536;12.688;2022-09-06T03:11:55;16.40;99.90
22153;DHT22;11242;50.536;12.688;2022-09-06T03:14:20;16.30;99.90
22153;DHT22;11242;50.536;12.688;2022-09-06T03:16:46;16.30;99.90
22153;DHT22;11242;50.536;12.688;2022-09-06T03:19:11;16.20;99.90
22153;DHT22;11242;50.536;12.688;2022-09-06T03:21:37;16.20;99.90
22153;DHT22;11242;50.536;12.688;2022-09-06T03:24:02;16.10;99.90
22153;DHT22;11242;50.536;12.688;2022-09-06T03:26:28;16.00;99.90
22153;DHT22;11242;50.536;12.688;2022-09-06T03:28:54;16.00;99.90
22153;DHT22;11242;50.536;12.688;2022-09-06T03:31:20;16.00;99.90
22153;DHT22;11242;50.536;12.688;2022-09-06T03:33:46;15.90;99.90
22153;DHT22;11242;50.536;12.688;2022-09-06T03:36:12;15.90;99.90
22153;DHT22;11242;50.536;12.688;2022-09-06T03:38:38;15.90;99.90
22153;DHT22;11242;50.536;12.688;2022-09-06T03:41:04;15.90;99.90
22153;DHT22;11242;50.536;12.688;2022-09-06T03:43:29;15.90;99.90
22153;DHT22;11242;50.536;12.688;2022-09-06T03:45:56;15.90;99.90
22153;DHT22;11242;50.536;12.688;2022-09-06T03:48:23;15.90;99.90
22153;DHT22;11242;50.536;12.688;2022-09-06T03:50:51;15.80;99.90
22153;DHT22;11242;50.536;12.688;2022-09-06T03:53:18;15.80;99.90
22153;DHT22;11242;50.536;12.688;2022-09-06T03:55:46;15.90;99.90
22153;DHT22;11242;50.536;12.688;2022-09-06T03:58:12;15.90;99.90
22153;DHT22;11242;50.536;12.688;2022-09-06T04:00:38;15.90;99.90
22153;DHT22;11242;50.536;12.688;2022-09-06T04:03:03;15.80;99.90
22153;DHT22;11242;50.536;12.688;2022-09-06T04:05:29;15.70;99.90
22153;DHT22;11242;50.536;12.688;2022-09-06T04:07:54;15.70;99.90
22153;DHT22;11242;50.536;12.688;2022-09-06T04:10:20;15.60;99.90
22153;DHT22;11242;50.536;12.688;2022-09-06T04:12:46;15.60;99.90
22153;DHT22;11242;50.536;12.688;2022-09-06T04:15:11;15.50;99.90
22153;DHT22;11242;50.536;12.688;2022-09-06T04:17:37;15.40;99.90
22153;DHT22;11242;50.536;12.688;2022-09-06T04:20:03;15.40;99.90
22153;DHT22;11242;50.536;12.688;2022-09-06T04:22:29;15.20;99.90
22153;DHT22;11242;50.536;12.688;2022-09-06T04:24:54;15.10;99.90
22153;DHT22;11242;50.536;12.688;2022-09-06T04:27:20;15.10;99.90
22153;DHT22;11242;50.536;12.688;2022-09-06T04:29:46;15.00;99.90
22153;DHT22;11242;50.536;12.688;2022-09-06T04:32:11;14.90;99.90
22153;DHT22;11242;50.536;12.688;2022-09-06T04:34:37;14.80;99.90
22153;DHT22;11242;50.536;12.688;2022-09-06T04:37:02;14.80;99.90
22153;DHT22;11242;50.536;12.688;2022-09-06T04:39:28;14.80;99.90
22153;DHT22;11242;50.536;12.688;2022-09-06T04:41:53;14.70;99.90
22153;DHT22;11242;50.536;12.688;2022-09-06T04:44:19;14.70;99.90
22153;DHT22;11242;50.536;12.688;2022-09-06T04:46:44;14.60;99.90
22153;DHT22;11242;50.536;12.688;2022-09-06T04:49:10;14.60;99.90
22153;DHT22;11242;50.536;12.688;2022-09-06T04:51:35;14.50;99.90
22153;DHT22;11242;50.536;12.688;2022-09-06T04:54:03;14.50;99.90
22153;DHT22;11242;50.536;12.688;2022-09-06T04:56:29;14.50;99.90
22153;DHT22;11242;50.536;12.688;2022-09-06T04:58:54;14.50;99.90
22153;DHT22;11242;50.536;12.688;2022-09-06T05:01:20;14.50;99.90
22153;DHT22;11242;50.536;12.688;2022-09-06T05:03:46;14.60;99.90
22153;DHT22;11242;50.536;12.688;2022-09-06T05:06:22;14.60;99.90
22153;DHT22;11242;50.536;12.688;2022-09-06T05:08:48;14.70;99.90
22153;DHT22;11242;50.536;12.688;2022-09-06T05:11:14;14.70;99.90
22153;DHT22;11242;50.536;12.688;2022-09-06T05:13:40;14.70;99.90
22153;DHT22;11242;50.536;12.688;2022-09-06T05:16:07;14.70;99.90
22153;DHT22;11242;50.536;12.688;2022-09-06T05:18:33;14.80;99.90
22153;DHT22;11242;50.536;12.688;2022-09-06T05:20:59;15.00;99.90
22153;DHT22;11242;50.536;12.688;2022-09-06T05:23:26;15.10;99.90
22153;DHT22;11242;50.536;12.688;2022-09-06T05:25:52;15.30;99.90
22153;DHT22;11242;50.536;12.688;2022-09-06T05:28:18;15.40;99.90
22153;DHT22;11242;50.536;12.688;2022-09-06T05:30:44;15.60;99.90
22153;DHT22;11242;50.536;12.688;2022-09-06T05:33:12;15.70;99.90
22153;DHT22;11242;50.536;12.688;2022-09-06T05:35:38;15.80;99.90
22153;DHT22;11242;50.536;12.688;2022-09-06T05:38:04;16.00;99.90
22153;DHT22;11242;50.536;12.688;2022-09-06T05:40:29;16.30;99.90
22153;DHT22;11242;50.536;12.688;2022-09-06T05:42:55;16.60;99.90
22153;DHT22;11242;50.536;12.688;2022-09-06T05:45:20;16.70;99.90
22153;DHT22;11242;50.536;12.688;2022-09-06T05:47:46;16.90;99.90
22153;DHT22;11242;50.536;12.688;2022-09-06T05:50:12;17.00;99.90
22153;DHT22;11242;50.536;12.688;2022-09-06T05:52:37;17.10;99.90
22153;DHT22;11242;50.536;12.688;2022-09-06T05:55:04;17.30;99.90
22153;DHT22;11242;50.536;12.688;2022-09-06T05:57:30;17.40;99.90
22153;DHT22;11242;50.536;12.688;2022-09-06T05:59:55;17.50;99.90
22153;DHT22;11242;50.536;12.688;2022-09-06T06:02:22;17.60;99.90
22153;DHT22;11242;50.536;12.688;2022-09-06T06:04:47;17.70;99.90
22153;DHT22;11242;50.536;12.688;2022-09-06T06:07:14;17.80;99.90
22153;DHT22;11242;50.536;12.688;2022-09-06T06:09:40;17.90;99.90
22153;DHT22;11242;50.536;12.688;2022-09-06T06:12:06;18.00;99.90
22153;DHT22;11242;50.536;12.688;2022-09-06T06:14:32;18.10;99.90
22153;DHT22;11242;50.536;12.688;2022-09-06T06:16:57;18.20;99.90
22153;DHT22;11242;50.536;12.688;2022-09-06T06:19:23;17.90;99.90
22153;DHT22;11242;50.536;12.688;2022-09-06T06:21:51;17.80;99.90
22153;DHT22;11242;50.536;12.688;2022-09-06T06:24:16;17.80;99.90
22153;DHT22;11242;50.536;12.688;2022-09-06T06:26:42;17.90;99.90
22153;DHT22;11242;50.536;12.688;2022-09-06T06:29:07;18.10;99.90
22153;DHT22;11242;50.536;12.688;2022-09-06T06:31:35;18.30;99.90
22153;DHT22;11242;50.536;12.688;2022-09-06T06:34:01;18.50;99.90
22153;DHT22;11242;50.536;12.688;2022-09-06T06:36:29;18.70;99.90
22153;DHT22;11242;50.536;12.688;2022-09-06T06:38:56;18.90;99.90
22153;DHT22;11242;50.536;12.688;2022-09-06T06:41:27;18.90;99.90
22153;DHT22;11242;50.536;12.688;2022-09-06T06:43:55;18.90;99.90
22153;DHT22;11242;50.536;12.688;2022-09-06T06:46:24;18.90;99.90
22153;DHT22;11242;50.536;12.688;2022-09-06T06:48:50;18.90;99.90
22153;DHT22;11242;50.536;12.688;2022-09-06T06:51:17;18.80;99.90
22153;DHT22;11242;50.536;12.688;2022-09-06T06:53:44;18.80;99.90
22153;DHT22;11242;50.536;12.688;2022-09-06T06:58:41;19.20;99.90
22153;DHT22;11242;50.536;12.688;2022-09-06T07:01:07;19.20;99.90
22153;DHT22;11242;50.536;12.688;2022-09-06T07:03:34;19.10;99.90
22153;DHT22;11242;50.536;12.688;2022-09-06T07:06:01;19.20;99.90
22153;DHT22;11242;50.536;12.688;2022-09-06T07:08:26;19.30;99.90
22153;DHT22;11242;50.536;12.688;2022-09-06T07:10:52;19.30;99.90
22153;DHT22;11242;50.536;12.688;2022-09-06T07:13:17;19.20;99.90
22153;DHT22;11242;50.536;12.688;2022-09-06T07:15:43;19.30;99.90
22153;DHT22;11242;50.536;12.688;2022-09-06T07:18:08;19.20;99.90
22153;DHT22;11242;50.536;12.688;2022-09-06T07:20:34;19.50;99.90
22153;DHT22;11242;50.536;12.688;2022-09-06T07:23:02;19.80;99.90
22153;DHT22;11242;50.536;12.688;2022-09-06T07:25:30;20.00;99.90
22153;DHT22;11242;50.536;12.688;2022-09-06T07:28:00;20.30;99.90
22153;DHT22;11242;50.536;12.688;2022-09-06T07:30:29;20.30;99.90
22153;DHT22;11242;50.536;12.688;2022-09-06T07:32:55;20.50;99.90
22153;DHT22;11242;50.536;12.688;2022-09-06T07:35:20;20.50;99.90
22153;DHT22;11242;50.536;12.688;2022-09-06T07:37:56;20.70;99.90
22153;DHT22;11242;50.536;12.688;2022-09-06T07:40:23;21.20;99.90
22153;DHT22;11242;50.536;12.688;2022-09-06T07:42:49;22.30;99.90
22153;DHT22;11242;50.536;12.688;2022-09-06T07:45:15;24.00;99.90
22153;DHT22;11242;50.536;12.688;2022-09-06T07:47:40;25.60;99.90
22153;DHT22;11242;50.536;12.688;2022-09-06T07:50:07;26.60;99.90
22153;DHT22;11242;50.536;12.688;2022-09-06T07:52:32;27.50;99.90
22153;DHT22;11242;50.536;12.688;2022-09-06T07:54:58;28.30;99.90
22153;DHT22;11242;50.536;12.688;2022-09-06T07:57:24;27.50;98.80
22153;DHT22;11242;50.536;12.688;2022-09-06T07:59:49;26.50;99.90
22153;DHT22;11242;50.536;12.688;2022-09-06T08:02:16;26.30;99.90
22153;DHT22;11242;50.536;12.688;2022-09-06T08:04:42;26.00;99.90
22153;DHT22;11242;50.536;12.688;2022-09-06T08:07:08;25.40;99.90
22153;DHT22;11242;50.536;12.688;2022-09-06T08:09:34;25.10;99.90
22153;DHT22;11242;50.536;12.688;2022-09-06T08:12:00;25.00;99.90
22153;DHT22;11242;50.536;12.688;2022-09-06T08:14:33;25.00;99.90
22153;DHT22;11242;50.536;12.688;2022-09-06T08:16:59;25.60;99.90
22153;DHT22;11242;50.536;12.688;2022-09-06T08:19:25;26.60;99.90
22153;DHT22;11242;50.536;12.688;2022-09-06T08:21:53;27.20;99.90
22153;DHT22;11242;50.536;12.688;2022-09-06T08:24:19;27.90;98.20
22153;DHT22;11242;50.536;12.688;2022-09-06T08:26:45;28.70;97.80
22153;DHT22;11242;50.536;12.688;2022-09-06T08:29:11;28.70;95.90
22153;DHT22;11242;50.536;12.688;2022-09-06T08:31:39;29.90;93.60
22153;DHT22;11242;50.536;12.688;2022-09-06T08:34:05;30.50;91.20
22153;DHT22;11242;50.536;12.688;2022-09-06T08:36:31;30.70;90.90
22153;DHT22;11242;50.536;12.688;2022-09-06T08:38:58;31.60;87.10
22153;DHT22;11242;50.536;12.688;2022-09-06T08:44:16;32.00;78.40
22153;DHT22;11242;50.536;12.688;2022-09-06T08:49:16;29.20;83.00
22153;DHT22;11242;50.536;12.688;2022-09-06T08:54:25;28.60;88.50
22153;DHT22;11242;50.536;12.688;2022-09-06T08:57:01;28.20;87.50
22153;DHT22;11242;50.536;12.688;2022-09-06T08:59:34;27.80;88.20
22153;DHT22;11242;50.536;12.688;2022-09-06T09:02:12;27.60;89.20
22153;DHT22;11242;50.536;12.688;2022-09-06T09:04:42;27.50;90.00
22153;DHT22;11242;50.536;12.688;2022-09-06T09:07:52;28.20;86.60
22153;DHT22;11242;50.536;12.688;2022-09-06T09:10:27;28.60;86.60
22153;DHT22;11242;50.536;12.688;2022-09-06T09:12:53;28.60;86.00
22153;DHT22;11242;50.536;12.688;2022-09-06T09:15:19;27.70;87.60
22153;DHT22;11242;50.536;12.688;2022-09-06T09:17:47;27.30;90.30
22153;DHT22;11242;50.536;12.688;2022-09-06T09:20:14;27.40;89.90
22153;DHT22;11242;50.536;12.688;2022-09-06T09:22:41;27.30;90.10
22153;DHT22;11242;50.536;12.688;2022-09-06T09:25:08;27.10;90.10
22153;DHT22;11242;50.536;12.688;2022-09-06T09:27:36;26.90;90.10
22153;DHT22;11242;50.536;12.688;2022-09-06T09:30:05;26.60;89.20
22153;DHT22;11242;50.536;12.688;2022-09-06T09:32:44;26.90;90.80
22153;DHT22;11242;50.536;12.688;2022-09-06T09:35:30;27.00;90.80
22153;DHT22;11242;50.536;12.688;2022-09-06T09:40:40;28.00;88.70
22153;DHT22;11242;50.536;12.688;2022-09-06T09:43:13;28.30;87.60
22153;DHT22;11242;50.536;12.688;2022-09-06T09:45:40;28.30;87.70
22153;DHT22;11242;50.536;12.688;2022-09-06T09:48:20;27.80;88.60
22153;DHT22;11242;50.536;12.688;2022-09-06T09:50:47;27.90;87.00
22153;DHT22;11242;50.536;12.688;2022-09-06T09:53:17;27.30;88.40
22153;DHT22;11242;50.536;12.688;2022-09-06T09:55:43;27.50;88.60
22153;DHT22;11242;50.536;12.688;2022-09-06T09:58:31;26.90;87.20
22153;DHT22;11242;50.536;12.688;2022-09-06T10:01:24;26.50;90.10
22153;DHT22;11242;50.536;12.688;2022-09-06T10:03:51;26.60;90.40
22153;DHT22;11242;50.536;12.688;2022-09-06T10:06:25;27.00;90.90
22153;DHT22;11242;50.536;12.688;2022-09-06T10:08:51;27.60;89.80
22153;DHT22;11242;50.536;12.688;2022-09-06T10:11:51;28.40;87.50
22153;DHT22;11242;50.536;12.688;2022-09-06T10:16:54;28.30;85.80
22153;DHT22;11242;50.536;12.688;2022-09-06T10:19:42;28.20;83.90
22153;DHT22;11242;50.536;12.688;2022-09-06T10:22:26;27.50;84.60
22153;DHT22;11242;50.536;12.688;2022-09-06T10:27:31;27.00;88.90
22153;DHT22;11242;50.536;12.688;2022-09-06T10:30:04;26.60;90.10
22153;DHT22;11242;50.536;12.688;2022-09-06T10:44:02;26.00;94.80
22153;DHT22;11242;50.536;12.688;2022-09-06T10:46:32;26.20;95.00
22153;DHT22;11242;50.536;12.688;2022-09-06T10:48:59;26.20;95.30
22153;DHT22;11242;50.536;12.688;2022-09-06T10:51:37;26.00;95.60
22153;DHT22;11242;50.536;12.688;2022-09-06T10:54:06;25.80;96.70
22153;DHT22;11242;50.536;12.688;2022-09-06T10:56:44;25.70;97.40
22153;DHT22;11242;50.536;12.688;2022-09-06T11:02:29;25.40;99.10
22153;DHT22;11242;50.536;12.688;2022-09-06T11:05:04;25.50;98.10
22153;DHT22;11242;50.536;12.688;2022-09-06T11:07:36;25.30;96.00
22153;DHT22;11242;50.536;12.688;2022-09-06T11:10:23;25.30;95.10
22153;DHT22;11242;50.536;12.688;2022-09-06T11:16:11;25.00;95.70
22153;DHT22;11242;50.536;12.688;2022-09-06T11:19:00;25.10;96.10
22153;DHT22;11242;50.536;12.688;2022-09-06T11:21:58;24.70;97.20
22153;DHT22;11242;50.536;12.688;2022-09-06T11:24:31;24.80;97.70
22153;DHT22;11242;50.536;12.688;2022-09-06T11:27:04;24.50;97.10
22153;DHT22;11242;50.536;12.688;2022-09-06T11:29:40;24.30;97.60
22153;DHT22;11242;50.536;12.688;2022-09-06T11:32:27;24.00;98.70
22153;DHT22;11242;50.536;12.688;2022-09-06T11:34:58;23.90;99.80
22153;DHT22;11242;50.536;12.688;2022-09-06T11:37:35;23.80;99.90
22153;DHT22;11242;50.536;12.688;2022-09-06T11:40:13;23.90;99.90
22153;DHT22;11242;50.536;12.688;2022-09-06T11:47:46;24.10;99.90
22153;DHT22;11242;50.536;12.688;2022-09-06T11:55:43;24.10;99.90
22153;DHT22;11242;50.536;12.688;2022-09-06T11:58:21;24.20;99.90
22153;DHT22;11242;50.536;12.688;2022-09-06T12:08:56;23.40;99.90
22153;DHT22;11242;50.536;12.688;2022-09-06T12:19:56;21.60;99.90
22153;DHT22;11242;50.536;12.688;2022-09-06T12:27:38;20.90;99.90
22153;DHT22;11242;50.536;12.688;2022-09-06T12:30:39;21.00;99.90
22153;DHT22;11242;50.536;12.688;2022-09-06T12:33:10;21.00;99.90
22153;DHT22;11242;50.536;12.688;2022-09-06T12:35:37;21.10;99.90
22153;DHT22;11242;50.536;12.688;2022-09-06T12:38:05;21.20;99.90
22153;DHT22;11242;50.536;12.688;2022-09-06T12:40:38;21.40;99.90
22153;DHT22;11242;50.536;12.688;2022-09-06T12:43:08;21.40;99.90
22153;DHT22;11242;50.536;12.688;2022-09-06T12:45:34;21.40;99.90
22153;DHT22;11242;50.536;12.688;2022-09-06T12:48:12;21.40;99.90
22153;DHT22;11242;50.536;12.688;2022-09-06T12:50:41;21.40;99.90
22153;DHT22;11242;50.536;12.688;2022-09-06T12:53:21;21.60;99.90
22153;DHT22;11242;50.536;12.688;2022-09-06T12:56:06;21.60;99.90
22153;DHT22;11242;50.536;12.688;2022-09-06T12:58:32;21.20;99.90
22153;DHT22;11242;50.536;12.688;2022-09-06T13:01:04;20.80;99.90
22153;DHT22;11242;50.536;12.688;2022-09-06T13:03:42;20.60;99.90
22153;DHT22;11242;50.536;12.688;2022-09-06T13:06:14;20.90;99.90
22153;DHT22;11242;50.536;12.688;2022-09-06T13:08:47;21.00;99.90
22153;DHT22;11242;50.536;12.688;2022-09-06T13:11:15;20.70;99.90
22153;DHT22;11242;50.536;12.688;2022-09-06T13:13:50;20.40;99.90
22153;DHT22;11242;50.536;12.688;2022-09-06T13:16:27;20.20;99.90
22153;DHT22;11242;50.536;12.688;2022-09-06T13:19:10;19.70;99.90
22153;DHT22;11242;50.536;12.688;2022-09-06T13:21:38;19.20;99.90
22153;DHT22;11242;50.536;12.688;2022-09-06T13:24:44;18.70;99.90
22153;DHT22;11242;50.536;12.688;2022-09-06T13:30:38;18.10;99.90
22153;DHT22;11242;50.536;12.688;2022-09-06T13:32:47;17.90;99.90
22153;DHT22;11242;50.536;12.688;2022-09-06T13:35:25;17.70;99.90
22153;DHT22;11242;50.536;12.688;2022-09-06T13:38:32;17.60;99.90
22153;DHT22;11242;50.536;12.688;2022-09-06T13:40:59;17.60;99.90
22153;DHT22;11242;50.536;12.688;2022-09-06T13:43:27;17.80;99.90
22153;DHT22;11242;50.536;12.688;2022-09-06T13:46:06;18.00;99.90
22153;DHT22;11242;50.536;12.688;2022-09-06T13:48:33;17.90;99.90
22153;DHT22;11242;50.536;12.688;2022-09-06T13:51:02;17.90;99.90
22153;DHT22;11242;50.536;12.688;2022-09-06T13:53:29;17.90;99.90
22153;DHT22;11242;50.536;12.688;2022-09-06T13:55:56;17.70;99.90
22153;DHT22;11242;50.536;12.688;2022-09-06T13:58:21;17.90;99.90
22153;DHT22;11242;50.536;12.688;2022-09-06T14:00:47;18.10;99.90
22153;DHT22;11242;50.536;12.688;2022-09-06T14:03:22;18.40;99.90
22153;DHT22;11242;50.536;12.688;2022-09-06T14:05:49;18.40;99.90
22153;DHT22;11242;50.536;12.688;2022-09-06T14:08:15;18.70;99.90
22153;DHT22;11242;50.536;12.688;2022-09-06T14:10:41;18.80;99.90
22153;DHT22;11242;50.536;12.688;2022-09-06T14:13:07;19.00;99.90
22153;DHT22;11242;50.536;12.688;2022-09-06T14:15:33;19.30;99.90
22153;DHT22;11242;50.536;12.688;2022-09-06T14:17:59;19.10;99.90
22153;DHT22;11242;50.536;12.688;2022-09-06T14:20:24;19.20;99.90
22153;DHT22;11242;50.536;12.688;2022-09-06T14:22:50;19.20;99.90
22153;DHT22;11242;50.536;12.688;2022-09-06T14:25:15;19.30;99.90
22153;DHT22;11242;50.536;12.688;2022-09-06T14:27:41;19.50;99.90
22153;DHT22;11242;50.536;12.688;2022-09-06T14:30:07;19.90;99.90
22153;DHT22;11242;50.536;12.688;2022-09-06T14:32:33;20.30;99.90
22153;DHT22;11242;50.536;12.688;2022-09-06T14:34:59;20.40;99.90
22153;DHT22;11242;50.536;12.688;2022-09-06T14:37:26;20.40;99.90
22153;DHT22;11242;50.536;12.688;2022-09-06T14:39:51;20.30;99.90
22153;DHT22;11242;50.536;12.688;2022-09-06T14:42:18;20.20;99.90
22153;DHT22;11242;50.536;12.688;2022-09-06T14:44:43;20.30;99.90
22153;DHT22;11242;50.536;12.688;2022-09-06T14:47:09;20.20;99.90
22153;DHT22;11242;50.536;12.688;2022-09-06T14:49:34;20.20;99.90
22153;DHT22;11242;50.536;12.688;2022-09-06T14:52:00;20.20;99.90
22153;DHT22;11242;50.536;12.688;2022-09-06T14:54:26;20.20;99.90
22153;DHT22;11242;50.536;12.688;2022-09-06T14:56:51;20.40;99.90
22153;DHT22;11242;50.536;12.688;2022-09-06T14:59:17;20.60;99.90
22153;DHT22;11242;50.536;12.688;2022-09-06T15:01:42;20.40;99.90
22153;DHT22;11242;50.536;12.688;2022-09-06T15:04:09;20.50;99.90
22153;DHT22;11242;50.536;12.688;2022-09-06T15:06:36;20.50;99.90
22153;DHT22;11242;50.536;12.688;2022-09-06T15:09:04;20.50;99.90
22153;DHT22;11242;50.536;12.688;2022-09-06T15:13:59;20.60;99.90
22153;DHT22;11242;50.536;12.688;2022-09-06T15:16:25;20.60;99.90
22153;DHT22;11242;50.536;12.688;2022-09-06T15:18:53;20.70;99.90
22153;DHT22;11242;50.536;12.688;2022-09-06T15:21:18;20.70;99.90
22153;DHT22;11242;50.536;12.688;2022-09-06T15:23:44;20.70;99.90
22153;DHT22;11242;50.536;12.688;2022-09-06T15:26:11;20.70;99.90
22153;DHT22;11242;50.536;12.688;2022-09-06T15:28:39;20.80;99.90
22153;DHT22;11242;50.536;12.688;2022-09-06T15:31:05;20.80;99.90
22153;DHT22;11242;50.536;12.688;2022-09-06T15:33:32;20.80;99.90
22153;DHT22;11242;50.536;12.688;2022-09-06T15:35:59;20.80;99.90
22153;DHT22;11242;50.536;12.688;2022-09-06T15:38:33;20.70;99.90
22153;DHT22;11242;50.536;12.688;2022-09-06T15:41:10;20.70;99.90
22153;DHT22;11242;50.536;12.688;2022-09-06T15:43:44;20.70;99.90
22153;DHT22;11242;50.536;12.688;2022-09-06T15:46:15;20.80;99.90
22153;DHT22;11242;50.536;12.688;2022-09-06T15:48:46;20.80;99.90
22153;DHT22;11242;50.536;12.688;2022-09-06T15:51:15;20.90;99.90
22153;DHT22;11242;50.536;12.688;2022-09-06T15:53:42;21.00;99.90
22153;DHT22;11242;50.536;12.688;2022-09-06T15:56:09;21.00;99.90
22153;DHT22;11242;50.536;12.688;2022-09-06T15:58:36;21.10;99.90
22153;DHT22;11242;50.536;12.688;2022-09-06T16:01:03;21.00;99.90
22153;DHT22;11242;50.536;12.688;2022-09-06T16:03:29;21.10;99.90
22153;DHT22;11242;50.536;12.688;2022-09-06T16:06:03;21.00;99.90
22153;DHT22;11242;50.536;12.688;2022-09-06T16:08:30;20.90;99.90
22153;DHT22;11242;50.536;12.688;2022-09-06T16:10:56;20.80;99.90
22153;DHT22;11242;50.536;12.688;2022-09-06T16:13:21;20.80;99.90
22153;DHT22;11242;50.536;12.688;2022-09-06T16:16:01;20.70;99.90
22153;DHT22;11242;50.536;12.688;2022-09-06T16:18:27;20.70;99.90
22153;DHT22;11242;50.536;12.688;2022-09-06T16:20:52;20.70;99.90
22153;DHT22;11242;50.536;12.688;2022-09-06T16:23:18;20.80;99.90
22153;DHT22;11242;50.536;12.688;2022-09-06T16:25:51;20.80;99.90
22153;DHT22;11242;50.536;12.688;2022-09-06T16:28:16;20.90;99.90
22153;DHT22;11242;50.536;12.688;2022-09-06T16:30:42;20.90;99.90
22153;DHT22;11242;50.536;12.688;2022-09-06T16:33:09;21.00;99.90
22153;DHT22;11242;50.536;12.688;2022-09-06T16:35:41;21.00;99.90
22153;DHT22;11242;50.536;12.688;2022-09-06T16:38:08;21.10;99.90
22153;DHT22;11242;50.536;12.688;2022-09-06T16:40:34;21.10;99.90
22153;DHT22;11242;50.536;12.688;2022-09-06T16:43:01;21.00;99.90
22153;DHT22;11242;50.536;12.688;2022-09-06T16:45:26;21.00;99.90
22153;DHT22;11242;50.536;12.688;2022-09-06T16:47:52;20.90;99.90
22153;DHT22;11242;50.536;12.688;2022-09-06T16:50:18;20.90;99.90
22153;DHT22;11242;50.536;12.688;2022-09-06T16:52:44;20.80;99.90
22153;DHT22;11242;50.536;12.688;2022-09-06T16:55:09;20.70;99.90
22153;DHT22;11242;50.536;12.688;2022-09-06T16:57:37;20.50;99.90
22153;DHT22;11242;50.536;12.688;2022-09-06T17:00:04;20.50;99.90
22153;DHT22;11242;50.536;12.688;2022-09-06T17:02:29;20.30;99.90
22153;DHT22;11242;50.536;12.688;2022-09-06T17:04:55;20.20;99.90